sensor_id;sensor_type;location;lat;lon;timestamp;pressure;altitude;pressure_sealevel;temperature;humidity
48614;BME280;34408;51.426;5.444;2022-11-15T00:01:01;100764.38;;;10.71;61.79
48614;BME280;34408;51.426;5.444;2022-11-15T00:03:28;100771.41;;;10.72;62.01
48614;BME280;34408;51.426;5.444;2022-11-15T00:06:01;100770.56;;;10.72;62.17
48614;BME280;34408;51.426;5.444;2022-11-15T00:08:30;100767.06;;;10.71;62.21
48614;BME280;34408;51.426;5.444;2022-11-15T00:11:01;100764.81;;;10.68;62.21
48614;BME280;34408;51.426;5.444;2022-11-15T00:13:29;100766.84;;;10.73;62.28
48614;BME280;34408;51.426;5.444;2022-11-15T00:15:58;100766.25;;;10.71;62.39
48614;BME280;34408;51.426;5.444;2022-11-15T00:18:26;100765.19;;;10.72;62.38
48614;BME280;34408;51.426;5.444;2022-11-15T00:20:54;100767.66;;;10.73;62.12
48614;BME280;34408;51.426;5.444;2022-11-15T00:23:22;100762.28;;;10.73;62.41
48614;BME280;34408;51.426;5.444;2022-11-15T00:25:55;100758.78;;;10.73;62.30
48614;BME280;34408;51.426;5.444;2022-11-15T00:28:25;100763.34;;;10.72;62.46
48614;BME280;34408;51.426;5.444;2022-11-15T00:30:53;100761.47;;;10.73;62.48
48614;BME280;34408;51.426;5.444;2022-11-15T00:33:21;100763.09;;;10.74;62.34
48614;BME280;34408;51.426;5.444;2022-11-15T00:35:48;100752.34;;;10.74;62.50
48614;BME280;34408;51.426;5.444;2022-11-15T00:38:16;100753.19;;;10.74;62.79
48614;BME280;34408;51.426;5.444;2022-11-15T00:40:44;100759.38;;;10.75;62.51
48614;BME280;34408;51.426;5.444;2022-11-15T00:43:12;100755.84;;;10.74;62.36
48614;BME280;34408;51.426;5.444;2022-11-15T00:45:41;100757.50;;;10.75;62.54
48614;BME280;34408;51.426;5.444;2022-11-15T00:48:09;100752.13;;;10.75;62.66
48614;BME280;34408;51.426;5.444;2022-11-15T00:50:37;100746.75;;;10.75;62.70
48614;BME280;34408;51.426;5.444;2022-11-15T00:53:04;100749.44;;;10.75;62.58
48614;BME280;34408;51.426;5.444;2022-11-15T00:55:32;100747.56;;;10.76;62.74
48614;BME280;34408;51.426;5.444;2022-11-15T00:58:00;100739.72;;;10.74;62.70
48614;BME280;34408;51.426;5.444;2022-11-15T01:00:28;100734.81;;;10.71;62.75
48614;BME280;34408;51.426;5.444;2022-11-15T01:02:57;100741.38;;;10.75;62.86
48614;BME280;34408;51.426;5.444;2022-11-15T01:05:25;100751.91;;;10.77;62.93
48614;BME280;34408;51.426;5.444;2022-11-15T01:07:52;100744.06;;;10.75;62.77
48614;BME280;34408;51.426;5.444;2022-11-15T01:10:20;100741.97;;;10.77;62.83
48614;BME280;34408;51.426;5.444;2022-11-15T01:12:49;100739.28;;;10.77;62.84
48614;BME280;34408;51.426;5.444;2022-11-15T01:15:17;100733.69;;;10.79;62.98
48614;BME280;34408;51.426;5.444;2022-11-15T01:17:45;100740.09;;;10.78;63.03
48614;BME280;34408;51.426;5.444;2022-11-15T01:20:14;100735.31;;;10.80;63.03
48614;BME280;34408;51.426;5.444;2022-11-15T01:22:41;100729.94;;;10.80;63.10
48614;BME280;34408;51.426;5.444;2022-11-15T01:25:09;100733.69;;;10.79;63.11
48614;BME280;34408;51.426;5.444;2022-11-15T01:27:37;100725.63;;;10.79;63.19
48614;BME280;34408;51.426;5.444;2022-11-15T01:30:06;100724.56;;;10.80;63.19
48614;BME280;34408;51.426;5.444;2022-11-15T01:32:34;100726.44;;;10.80;63.24
48614;BME280;34408;51.426;5.444;2022-11-15T01:35:02;100716.50;;;10.80;63.39
48614;BME280;34408;51.426;5.444;2022-11-15T01:37:31;100717.31;;;10.81;63.31
48614;BME280;34408;51.426;5.444;2022-11-15T01:39:59;100720.84;;;10.81;63.50
48614;BME280;34408;51.426;5.444;2022-11-15T01:42:27;100719.19;;;10.80;63.38
48614;BME280;34408;51.426;5.444;2022-11-15T01:44:54;100715.69;;;10.80;63.73
48614;BME280;34408;51.426;5.444;2022-11-15T01:47:24;100713.81;;;10.80;63.45
48614;BME280;34408;51.426;5.444;2022-11-15T01:49:57;100711.94;;;10.81;63.52
48614;BME280;34408;51.426;5.444;2022-11-15T01:52:28;100711.13;;;10.80;63.96
48614;BME280;34408;51.426;5.444;2022-11-15T01:55:05;100713.81;;;10.80;63.78
48614;BME280;34408;51.426;5.444;2022-11-15T01:57:34;100714.63;;;10.81;63.87
48614;BME280;34408;51.426;5.444;2022-11-15T02:00:04;100707.84;;;10.78;63.99
48614;BME280;34408;51.426;5.444;2022-11-15T02:02:33;100711.72;;;10.82;63.99
48614;BME280;34408;51.426;5.444;2022-11-15T02:05:02;100708.81;;;10.84;64.28
48614;BME280;34408;51.426;5.444;2022-11-15T02:07:31;100713.13;;;10.85;64.20
48614;BME280;34408;51.426;5.444;2022-11-15T02:10:04;100699.91;;;10.83;64.42
48614;BME280;34408;51.426;5.444;2022-11-15T02:12:34;100700.75;;;10.84;64.29
48614;BME280;34408;51.426;5.444;2022-11-15T02:15:02;100708.56;;;10.85;64.41
48614;BME280;34408;51.426;5.444;2022-11-15T02:17:44;100695.59;;;10.82;64.49
48614;BME280;34408;51.426;5.444;2022-11-15T02:20:54;100695.97;;;10.86;64.67
48614;BME280;34408;51.426;5.444;2022-11-15T02:23:49;100694.91;;;10.87;64.62
48614;BME280;34408;51.426;5.444;2022-11-15T02:26:50;100698.66;;;10.86;64.95
48614;BME280;34408;51.426;5.444;2022-11-15T02:29:36;100701.09;;;10.87;64.65
48614;BME280;34408;51.426;5.444;2022-11-15T02:32:14;100699.25;;;10.88;64.82
48614;BME280;34408;51.426;5.444;2022-11-15T02:34:51;100692.81;;;10.89;64.87
48614;BME280;34408;51.426;5.444;2022-11-15T02:37:30;100693.63;;;10.89;65.13
48614;BME280;34408;51.426;5.444;2022-11-15T02:39:59;100689.91;;;10.90;64.72
48614;BME280;34408;51.426;5.444;2022-11-15T02:42:35;100682.44;;;10.92;64.99
48614;BME280;34408;51.426;5.444;2022-11-15T02:45:25;100680.34;;;10.94;65.36
48614;BME280;34408;51.426;5.444;2022-11-15T02:47:58;100694.81;;;10.93;65.22
48614;BME280;34408;51.426;5.444;2022-11-15T02:50:29;100682.19;;;10.94;65.44
48614;BME280;34408;51.426;5.444;2022-11-15T02:52:59;100684.06;;;10.93;65.44
48614;BME280;34408;51.426;5.444;2022-11-15T02:55:29;100676.00;;;10.93;65.12
48614;BME280;34408;51.426;5.444;2022-11-15T02:58:11;100672.25;;;10.94;65.55
48614;BME280;34408;51.426;5.444;2022-11-15T03:00:45;100674.13;;;10.94;65.51
48614;BME280;34408;51.426;5.444;2022-11-15T03:03:36;100662.31;;;10.95;65.46
48614;BME280;34408;51.426;5.444;2022-11-15T03:06:18;100661.50;;;10.94;65.37
48614;BME280;34408;51.426;5.444;2022-11-15T03:08:57;100650.53;;;10.96;65.42
48614;BME280;34408;51.426;5.444;2022-11-15T03:11:31;100647.84;;;10.96;65.43
48614;BME280;34408;51.426;5.444;2022-11-15T03:14:05;100649.47;;;10.97;65.74
48614;BME280;34408;51.426;5.444;2022-11-15T03:16:36;100653.81;;;10.98;65.79
48614;BME280;34408;51.426;5.444;2022-11-15T03:19:09;100647.59;;;10.97;65.71
48614;BME280;34408;51.426;5.444;2022-11-15T03:21:40;100651.94;;;10.98;66.09
48614;BME280;34408;51.426;5.444;2022-11-15T03:24:08;100651.13;;;10.98;65.74
48614;BME280;34408;51.426;5.444;2022-11-15T03:26:38;100655.44;;;10.99;65.81
48614;BME280;34408;51.426;5.444;2022-11-15T03:29:12;100651.72;;;11.00;65.78
48614;BME280;34408;51.426;5.444;2022-11-15T03:31:45;100663.50;;;10.99;65.88
48614;BME280;34408;51.426;5.444;2022-11-15T03:34:25;100661.41;;;11.01;65.94
48614;BME280;34408;51.426;5.444;2022-11-15T03:36:53;100657.09;;;11.00;65.88
48614;BME280;34408;51.426;5.444;2022-11-15T03:39:22;100651.94;;;10.98;65.82
48614;BME280;34408;51.426;5.444;2022-11-15T03:41:57;100654.75;;;11.03;65.83
48614;BME280;34408;51.426;5.444;2022-11-15T03:44:36;100662.81;;;11.03;65.83
48614;BME280;34408;51.426;5.444;2022-11-15T03:47:09;100660.94;;;11.04;66.02
48614;BME280;34408;51.426;5.444;2022-11-15T03:49:44;100664.47;;;11.04;66.36
48614;BME280;34408;51.426;5.444;2022-11-15T03:52:17;100669.03;;;11.04;66.01
48614;BME280;34408;51.426;5.444;2022-11-15T03:54:49;100662.59;;;11.05;65.90
48614;BME280;34408;51.426;5.444;2022-11-15T03:57:18;100659.91;;;11.05;66.14
48614;BME280;34408;51.426;5.444;2022-11-15T03:59:45;100652.66;;;11.05;66.16
48614;BME280;34408;51.426;5.444;2022-11-15T04:02:13;100646.22;;;11.06;66.23
48614;BME280;34408;51.426;5.444;2022-11-15T04:04:43;100649.75;;;11.07;66.13
48614;BME280;34408;51.426;5.444;2022-11-15T04:07:10;100659.69;;;11.06;66.24
48614;BME280;34408;51.426;5.444;2022-11-15T04:09:38;100652.44;;;11.07;66.05
48614;BME280;34408;51.426;5.444;2022-11-15T04:12:20;100660.50;;;11.07;66.16
48614;BME280;34408;51.426;5.444;2022-11-15T04:14:58;100647.88;;;11.07;66.34
48614;BME280;34408;51.426;5.444;2022-11-15T04:17:37;100644.13;;;11.08;66.29
48614;BME280;34408;51.426;5.444;2022-11-15T04:20:09;100646.22;;;11.06;66.26
48614;BME280;34408;51.426;5.444;2022-11-15T04:22:55;100648.47;;;11.09;66.26
48614;BME280;34408;51.426;5.444;2022-11-15T04:25:42;100659.00;;;11.11;66.21
48614;BME280;34408;51.426;5.444;2022-11-15T04:28:11;100650.09;;;11.11;66.17
48614;BME280;34408;51.426;5.444;2022-11-15T04:30:39;100656.28;;;11.11;66.27
48614;BME280;34408;51.426;5.444;2022-11-15T04:33:06;100655.25;;;11.12;66.30
48614;BME280;34408;51.426;5.444;2022-11-15T04:35:35;100661.44;;;11.13;66.46
48614;BME280;34408;51.426;5.444;2022-11-15T04:38:05;100657.13;;;11.12;66.79
48614;BME280;34408;51.426;5.444;2022-11-15T04:40:32;100654.44;;;11.12;66.56
48614;BME280;34408;51.426;5.444;2022-11-15T04:43:00;100656.06;;;11.13;66.39
48614;BME280;34408;51.426;5.444;2022-11-15T04:45:29;100660.41;;;11.14;66.38
48614;BME280;34408;51.426;5.444;2022-11-15T04:47:57;100663.09;;;11.14;66.62
48614;BME280;34408;51.426;5.444;2022-11-15T04:50:25;100659.34;;;11.15;66.55
48614;BME280;34408;51.426;5.444;2022-11-15T04:52:54;100657.72;;;11.14;66.51
48614;BME280;34408;51.426;5.444;2022-11-15T04:55:21;100660.16;;;11.15;66.62
48614;BME280;34408;51.426;5.444;2022-11-15T04:57:57;100652.09;;;11.15;66.58
48614;BME280;34408;51.426;5.444;2022-11-15T05:00:26;100652.09;;;11.15;66.48
48614;BME280;34408;51.426;5.444;2022-11-15T05:02:54;100651.88;;;11.17;66.56
48614;BME280;34408;51.426;5.444;2022-11-15T05:05:39;100653.75;;;11.16;66.62
48614;BME280;34408;51.426;5.444;2022-11-15T05:08:08;100650.00;;;11.17;66.58
48614;BME280;34408;51.426;5.444;2022-11-15T05:10:36;100650.00;;;11.17;66.59
48614;BME280;34408;51.426;5.444;2022-11-15T05:13:03;100646.50;;;11.17;66.74
48614;BME280;34408;51.426;5.444;2022-11-15T05:15:31;100649.19;;;11.17;67.08
48614;BME280;34408;51.426;5.444;2022-11-15T05:17:59;100649.19;;;11.17;66.75
48614;BME280;34408;51.426;5.444;2022-11-15T05:20:27;100646.25;;;11.18;66.78
48614;BME280;34408;51.426;5.444;2022-11-15T05:22:54;100648.72;;;11.20;66.83
48614;BME280;34408;51.426;5.444;2022-11-15T05:25:24;100643.34;;;11.20;67.10
48614;BME280;34408;51.426;5.444;2022-11-15T05:27:52;100639.00;;;11.19;66.92
48614;BME280;34408;51.426;5.444;2022-11-15T05:30:20;100634.44;;;11.19;66.91
48614;BME280;34408;51.426;5.444;2022-11-15T05:32:48;100626.03;;;11.16;67.01
48614;BME280;34408;51.426;5.444;2022-11-15T05:35:20;100637.13;;;11.19;66.85
48614;BME280;34408;51.426;5.444;2022-11-15T05:37:50;100626.38;;;11.19;66.76
48614;BME280;34408;51.426;5.444;2022-11-15T05:40:17;100632.56;;;11.20;66.92
48614;BME280;34408;51.426;5.444;2022-11-15T05:42:47;100632.56;;;11.20;66.96
48614;BME280;34408;51.426;5.444;2022-11-15T05:45:15;100632.56;;;11.20;66.44
48614;BME280;34408;51.426;5.444;2022-11-15T05:47:52;100636.31;;;11.19;66.81
48614;BME280;34408;51.426;5.444;2022-11-15T05:50:23;100646.63;;;11.22;66.99
48614;BME280;34408;51.426;5.444;2022-11-15T05:52:51;100642.06;;;11.22;66.92
48614;BME280;34408;51.426;5.444;2022-11-15T05:55:19;100648.84;;;11.25;67.15
48614;BME280;34408;51.426;5.444;2022-11-15T05:57:48;100648.03;;;11.24;67.16
48614;BME280;34408;51.426;5.444;2022-11-15T06:00:16;100651.53;;;11.25;67.17
48614;BME280;34408;51.426;5.444;2022-11-15T06:02:44;100652.72;;;11.29;67.16
48614;BME280;34408;51.426;5.444;2022-11-15T06:05:12;100653.53;;;11.29;67.17
48614;BME280;34408;51.426;5.444;2022-11-15T06:07:40;100659.50;;;11.31;67.59
48614;BME280;34408;51.426;5.444;2022-11-15T06:10:08;100663.00;;;11.32;67.24
48614;BME280;34408;51.426;5.444;2022-11-15T06:12:36;100660.56;;;11.30;67.32
48614;BME280;34408;51.426;5.444;2022-11-15T06:15:06;100658.44;;;11.32;67.34
48614;BME280;34408;51.426;5.444;2022-11-15T06:17:34;100650.38;;;11.32;67.49
48614;BME280;34408;51.426;5.444;2022-11-15T06:20:02;100650.16;;;11.34;67.60
48614;BME280;34408;51.426;5.444;2022-11-15T06:22:30;100661.72;;;11.34;67.67
48614;BME280;34408;51.426;5.444;2022-11-15T06:24:57;100664.41;;;11.34;67.48
48614;BME280;34408;51.426;5.444;2022-11-15T06:27:30;100663.59;;;11.34;70.35
48614;BME280;34408;51.426;5.444;2022-11-15T06:29:58;100662.78;;;11.33;68.75
48614;BME280;34408;51.426;5.444;2022-11-15T06:32:28;100670.63;;;11.35;68.75
48614;BME280;34408;51.426;5.444;2022-11-15T06:34:56;100670.03;;;11.33;68.89
48614;BME280;34408;51.426;5.444;2022-11-15T06:37:24;100670.03;;;11.33;68.79
48614;BME280;34408;51.426;5.444;2022-11-15T06:39:51;100671.09;;;11.32;68.59
48614;BME280;34408;51.426;5.444;2022-11-15T06:42:19;100667.81;;;11.30;68.60
48614;BME280;34408;51.426;5.444;2022-11-15T06:44:47;100670.50;;;11.30;68.41
48614;BME280;34408;51.426;5.444;2022-11-15T06:47:15;100667.81;;;11.30;68.25
48614;BME280;34408;51.426;5.444;2022-11-15T06:49:44;100669.69;;;11.29;68.19
48614;BME280;34408;51.426;5.444;2022-11-15T06:52:11;100680.22;;;11.31;68.04
48614;BME280;34408;51.426;5.444;2022-11-15T06:54:39;100671.31;;;11.30;68.06
48614;BME280;34408;51.426;5.444;2022-11-15T06:57:07;100685.34;;;11.32;68.10
48614;BME280;34408;51.426;5.444;2022-11-15T06:59:34;100687.81;;;11.34;68.18
48614;BME280;34408;51.426;5.444;2022-11-15T07:02:10;100687.00;;;11.33;68.08
48614;BME280;34408;51.426;5.444;2022-11-15T07:04:39;100694.00;;;11.34;68.03
48614;BME280;34408;51.426;5.444;2022-11-15T07:07:08;100697.75;;;11.33;67.96
48614;BME280;34408;51.426;5.444;2022-11-15T07:09:35;100690.75;;;11.32;67.98
48614;BME280;34408;51.426;5.444;2022-11-15T07:12:04;100694.47;;;11.31;68.00
48614;BME280;34408;51.426;5.444;2022-11-15T07:14:33;100692.59;;;11.32;67.91
48614;BME280;34408;51.426;5.444;2022-11-15T07:17:03;100700.69;;;11.32;67.83
48614;BME280;34408;51.426;5.444;2022-11-15T07:19:31;100700.44;;;11.33;67.92
48614;BME280;34408;51.426;5.444;2022-11-15T07:21:58;100712.03;;;11.34;67.99
48614;BME280;34408;51.426;5.444;2022-11-15T07:24:28;100710.16;;;11.34;68.13
48614;BME280;34408;51.426;5.444;2022-11-15T07:26:55;100708.28;;;11.35;68.17
48614;BME280;34408;51.426;5.444;2022-11-15T07:29:23;100707.25;;;11.36;68.32
48614;BME280;34408;51.426;5.444;2022-11-15T07:31:51;100710.16;;;11.34;68.25
48614;BME280;34408;51.426;5.444;2022-11-15T07:34:18;100703.97;;;11.34;68.27
48614;BME280;34408;51.426;5.444;2022-11-15T07:36:46;100703.97;;;11.34;68.25
48614;BME280;34408;51.426;5.444;2022-11-15T07:39:14;100712.63;;;11.36;68.29
48614;BME280;34408;51.426;5.444;2022-11-15T07:41:43;100702.69;;;11.36;68.42
48614;BME280;34408;51.426;5.444;2022-11-15T07:44:11;100700.81;;;11.37;68.44
48614;BME280;34408;51.426;5.444;2022-11-15T07:46:38;100697.06;;;11.38;68.26
48614;BME280;34408;51.426;5.444;2022-11-15T07:49:06;100692.75;;;11.37;68.26
48614;BME280;34408;51.426;5.444;2022-11-15T07:51:34;100693.56;;;11.37;68.14
48614;BME280;34408;51.426;5.444;2022-11-15T07:54:02;100690.03;;;11.37;68.18
48614;BME280;34408;51.426;5.444;2022-11-15T07:56:29;100691.91;;;11.36;68.13
48614;BME280;34408;51.426;5.444;2022-11-15T07:58:59;100698.94;;;11.37;68.14
48614;BME280;34408;51.426;5.444;2022-11-15T08:01:27;100702.44;;;11.38;68.20
48614;BME280;34408;51.426;5.444;2022-11-15T08:03:55;100705.97;;;11.38;68.32
48614;BME280;34408;51.426;5.444;2022-11-15T08:06:22;100701.63;;;11.37;68.06
48614;BME280;34408;51.426;5.444;2022-11-15T08:08:50;100705.13;;;11.38;67.97
48614;BME280;34408;51.426;5.444;2022-11-15T08:11:18;100711.34;;;11.38;68.20
48614;BME280;34408;51.426;5.444;2022-11-15T08:13:46;100713.81;;;11.40;68.17
48614;BME280;34408;51.426;5.444;2022-11-15T08:16:15;100710.06;;;11.41;68.00
48614;BME280;34408;51.426;5.444;2022-11-15T08:18:42;100715.91;;;11.38;68.20
48614;BME280;34408;51.426;5.444;2022-11-15T08:21:19;100714.63;;;11.40;68.38
48614;BME280;34408;51.426;5.444;2022-11-15T08:23:47;100707.38;;;11.41;68.42
48614;BME280;34408;51.426;5.444;2022-11-15T08:26:15;100706.56;;;11.40;68.41
48614;BME280;34408;51.426;5.444;2022-11-15T08:28:43;100707.38;;;11.41;68.43
48614;BME280;34408;51.426;5.444;2022-11-15T08:31:15;100700.72;;;11.44;68.49
48614;BME280;34408;51.426;5.444;2022-11-15T08:33:44;100694.28;;;11.45;68.47
48614;BME280;34408;51.426;5.444;2022-11-15T08:36:13;100687.25;;;11.44;68.77
48614;BME280;34408;51.426;5.444;2022-11-15T08:38:42;100694.50;;;11.43;68.58
48614;BME280;34408;51.426;5.444;2022-11-15T08:41:12;100689.34;;;11.41;68.56
48614;BME280;34408;51.426;5.444;2022-11-15T08:43:41;100688.66;;;11.46;68.74
48614;BME280;34408;51.426;5.444;2022-11-15T08:46:11;100681.41;;;11.47;68.54
48614;BME280;34408;51.426;5.444;2022-11-15T08:48:41;100678.25;;;11.50;68.49
48614;BME280;34408;51.426;5.444;2022-11-15T08:51:09;100670.19;;;11.61;68.13
48614;BME280;34408;51.426;5.444;2022-11-15T08:53:36;100666.38;;;11.81;67.78
48614;BME280;34408;51.426;5.444;2022-11-15T08:56:07;100663.31;;;12.00;66.97
48614;BME280;34408;51.426;5.444;2022-11-15T08:58:35;100662.31;;;12.30;65.86
48614;BME280;34408;51.426;5.444;2022-11-15T09:01:03;100664.97;;;12.42;65.65
48614;BME280;34408;51.426;5.444;2022-11-15T09:03:31;100666.53;;;12.66;65.27
48614;BME280;34408;51.426;5.444;2022-11-15T09:06:00;100657.94;;;12.81;64.28
48614;BME280;34408;51.426;5.444;2022-11-15T09:08:29;100657.06;;;12.92;64.35
48614;BME280;34408;51.426;5.444;2022-11-15T09:11:13;100646.34;;;13.25;63.22
48614;BME280;34408;51.426;5.444;2022-11-15T09:13:43;100643.31;;;13.22;63.20
48614;BME280;34408;51.426;5.444;2022-11-15T09:16:10;100640.63;;;13.22;63.21
48614;BME280;34408;51.426;5.444;2022-11-15T09:18:39;100635.81;;;13.24;62.64
48614;BME280;34408;51.426;5.444;2022-11-15T09:21:08;100632.44;;;13.33;62.97
48614;BME280;34408;51.426;5.444;2022-11-15T09:23:36;100633.59;;;13.38;62.36
48614;BME280;34408;51.426;5.444;2022-11-15T09:26:05;100637.84;;;13.33;62.75
48614;BME280;34408;51.426;5.444;2022-11-15T09:28:33;100631.06;;;13.31;63.24
48614;BME280;34408;51.426;5.444;2022-11-15T09:31:04;100635.72;;;13.19;63.55
48614;BME280;34408;51.426;5.444;2022-11-15T09:33:32;100627.13;;;13.22;64.27
48614;BME280;34408;51.426;5.444;2022-11-15T09:36:01;100623.06;;;13.08;63.90
48614;BME280;34408;51.426;5.444;2022-11-15T09:38:31;100620.94;;;12.93;64.76
48614;BME280;34408;51.426;5.444;2022-11-15T09:44:35;100626.91;;;12.66;65.64
48614;BME280;34408;51.426;5.444;2022-11-15T09:47:28;100628.78;;;12.66;65.57
48614;BME280;34408;51.426;5.444;2022-11-15T09:50:08;100621.66;;;12.60;65.96
48614;BME280;34408;51.426;5.444;2022-11-15T09:52:39;100622.41;;;12.55;66.09
48614;BME280;34408;51.426;5.444;2022-11-15T09:55:12;100616.66;;;12.52;66.53
48614;BME280;34408;51.426;5.444;2022-11-15T09:57:53;100614.44;;;12.49;66.81
48614;BME280;34408;51.426;5.444;2022-11-15T10:00:24;100613.72;;;12.53;66.71
48614;BME280;34408;51.426;5.444;2022-11-15T10:03:13;100616.03;;;12.61;66.35
48614;BME280;34408;51.426;5.444;2022-11-15T10:05:44;100619.03;;;12.48;65.92
48614;BME280;34408;51.426;5.444;2022-11-15T10:08:24;100620.56;;;12.44;66.52
48614;BME280;34408;51.426;5.444;2022-11-15T10:10:56;100622.34;;;12.38;66.53
48614;BME280;34408;51.426;5.444;2022-11-15T10:13:46;100622.78;;;12.47;66.53
48614;BME280;34408;51.426;5.444;2022-11-15T10:16:30;100616.31;;;12.48;65.76
48614;BME280;34408;51.426;5.444;2022-11-15T10:19:07;100616.19;;;12.55;66.17
48614;BME280;34408;51.426;5.444;2022-11-15T10:21:46;100611.84;;;12.54;65.74
48614;BME280;34408;51.426;5.444;2022-11-15T10:24:19;100611.03;;;12.53;66.07
48614;BME280;34408;51.426;5.444;2022-11-15T10:26:50;100604.03;;;12.41;66.06
48614;BME280;34408;51.426;5.444;2022-11-15T10:29:19;100601.25;;;12.35;66.82
48614;BME280;34408;51.426;5.444;2022-11-15T10:31:52;100605.47;;;12.31;66.50
48614;BME280;34408;51.426;5.444;2022-11-15T10:34:22;100597.06;;;12.28;66.80
48614;BME280;34408;51.426;5.444;2022-11-15T10:36:55;100599.03;;;12.32;66.72
48614;BME280;34408;51.426;5.444;2022-11-15T10:39:23;100596.25;;;12.27;66.74
48614;BME280;34408;51.426;5.444;2022-11-15T10:41:53;100585.13;;;12.24;66.79
48614;BME280;34408;51.426;5.444;2022-11-15T10:44:24;100577.56;;;12.37;66.82
48614;BME280;34408;51.426;5.444;2022-11-15T10:49:57;100567.28;;;12.34;66.43
48614;BME280;34408;51.426;5.444;2022-11-15T10:52:26;100570.22;;;12.33;66.55
48614;BME280;34408;51.426;5.444;2022-11-15T10:54:58;100561.88;;;12.34;67.14
48614;BME280;34408;51.426;5.444;2022-11-15T10:57:32;100558.03;;;12.30;66.33
48614;BME280;34408;51.426;5.444;2022-11-15T11:00:03;100559.09;;;12.29;66.54
48614;BME280;34408;51.426;5.444;2022-11-15T11:02:34;100546.69;;;12.28;66.96
48614;BME280;34408;51.426;5.444;2022-11-15T11:05:04;100553.94;;;12.28;66.84
48614;BME280;34408;51.426;5.444;2022-11-15T11:07:34;100555.91;;;12.32;67.36
48614;BME280;34408;51.426;5.444;2022-11-15T11:10:05;100554.63;;;12.35;66.89
48614;BME280;34408;51.426;5.444;2022-11-15T11:13:21;100536.00;;;12.33;66.84
48614;BME280;34408;51.426;5.444;2022-11-15T11:15:55;100531.66;;;12.32;66.69
48614;BME280;34408;51.426;5.444;2022-11-15T11:18:30;100525.31;;;12.38;66.90
48614;BME280;34408;51.426;5.444;2022-11-15T11:21:05;100519.09;;;12.38;66.55
48614;BME280;34408;51.426;5.444;2022-11-15T11:23:44;100512.59;;;12.51;66.58
48614;BME280;34408;51.426;5.444;2022-11-15T11:26:33;100509.00;;;12.45;66.03
48614;BME280;34408;51.426;5.444;2022-11-15T11:32:02;100493.56;;;12.41;66.32
48614;BME280;34408;51.426;5.444;2022-11-15T11:34:42;100490.03;;;12.40;66.39
48614;BME280;34408;51.426;5.444;2022-11-15T11:37:20;100482.47;;;12.54;66.70
48614;BME280;34408;51.426;5.444;2022-11-15T11:40:00;100474.84;;;12.51;66.42
48614;BME280;34408;51.426;5.444;2022-11-15T11:42:40;100478.63;;;12.50;66.50
48614;BME280;34408;51.426;5.444;2022-11-15T11:45:22;100463.75;;;12.47;66.57
48614;BME280;34408;51.426;5.444;2022-11-15T11:48:12;100450.66;;;12.39;66.46
48614;BME280;34408;51.426;5.444;2022-11-15T11:50:40;100448.56;;;12.41;66.34
48614;BME280;34408;51.426;5.444;2022-11-15T11:53:12;100449.88;;;12.55;67.47
48614;BME280;34408;51.426;5.444;2022-11-15T11:55:45;100445.78;;;12.53;66.71
48614;BME280;34408;51.426;5.444;2022-11-15T11:58:16;100450.13;;;12.54;66.43
48614;BME280;34408;51.426;5.444;2022-11-15T12:00:50;100441.22;;;12.53;66.44
48614;BME280;34408;51.426;5.444;2022-11-15T12:03:25;100437.13;;;12.51;66.33
48614;BME280;34408;51.426;5.444;2022-11-15T12:05:56;100430.91;;;12.50;66.39
48614;BME280;34408;51.426;5.444;2022-11-15T12:08:31;100422.00;;;12.50;66.30
48614;BME280;34408;51.426;5.444;2022-11-15T12:11:08;100413.94;;;12.50;66.36
48614;BME280;34408;51.426;5.444;2022-11-15T12:13:38;100422.81;;;12.50;66.69
48614;BME280;34408;51.426;5.444;2022-11-15T12:16:13;100409.28;;;12.45;66.28
48614;BME280;34408;51.426;5.444;2022-11-15T12:18:47;100414.25;;;12.53;66.64
48614;BME280;34408;51.426;5.444;2022-11-15T12:21:21;100410.25;;;12.56;66.14
48614;BME280;34408;51.426;5.444;2022-11-15T12:23:59;100407.31;;;12.57;66.22
48614;BME280;34408;51.426;5.444;2022-11-15T12:26:35;100394.66;;;12.58;66.26
48614;BME280;34408;51.426;5.444;2022-11-15T12:29:09;100385.50;;;12.59;66.15
48614;BME280;34408;51.426;5.444;2022-11-15T12:31:42;100383.63;;;12.59;65.78
48614;BME280;34408;51.426;5.444;2022-11-15T12:34:30;100385.25;;;12.60;66.15
48614;BME280;34408;51.426;5.444;2022-11-15T12:37:46;100379.28;;;12.58;65.89
48614;BME280;34408;51.426;5.444;2022-11-15T12:40:21;100374.47;;;12.60;65.87
48614;BME280;34408;51.426;5.444;2022-11-15T12:46:05;100376.91;;;12.62;65.36
48614;BME280;34408;51.426;5.444;2022-11-15T12:48:56;100363.19;;;12.63;65.54
48614;BME280;34408;51.426;5.444;2022-11-15T12:55:01;100356.16;;;12.62;65.65
48614;BME280;34408;51.426;5.444;2022-11-15T12:57:37;100348.91;;;12.63;65.32
48614;BME280;34408;51.426;5.444;2022-11-15T13:03:17;100341.38;;;12.65;64.94
48614;BME280;34408;51.426;5.444;2022-11-15T13:09:02;100321.69;;;12.64;65.06
48614;BME280;34408;51.426;5.444;2022-11-15T13:11:49;100313.28;;;12.61;65.37
48614;BME280;34408;51.426;5.444;2022-11-15T13:14:43;100319.00;;;12.64;65.51
48614;BME280;34408;51.426;5.444;2022-11-15T13:17:29;100304.44;;;12.65;65.39
48614;BME280;34408;51.426;5.444;2022-11-15T13:22:43;100303.38;;;12.66;64.18
48614;BME280;34408;51.426;5.444;2022-11-15T13:28:25;100293.41;;;12.67;64.76
48614;BME280;34408;51.426;5.444;2022-11-15T13:30:57;100289.91;;;12.66;65.29
48614;BME280;34408;51.426;5.444;2022-11-15T13:33:31;100290.72;;;12.67;65.37
48614;BME280;34408;51.426;5.444;2022-11-15T13:36:04;100282.63;;;12.67;64.68
48614;BME280;34408;51.426;5.444;2022-11-15T13:38:34;100272.41;;;12.69;65.20
48614;BME280;34408;51.426;5.444;2022-11-15T13:41:17;100270.53;;;12.69;64.77
48614;BME280;34408;51.426;5.444;2022-11-15T13:43:48;100258.38;;;12.67;64.81